createdAt,value
2023-03-30T00:00:04.446Z,5.00
2023-03-30T00:01:17.054Z,4.80
2023-03-30T00:02:06.113Z,4.30
2023-03-30T00:03:05.124Z,3.80
2023-03-30T00:04:05.322Z,3.20
2023-03-30T00:05:05.663Z,5.10
2023-03-30T00:06:05.780Z,4.70
2023-03-30T00:07:07.003Z,4.10
2023-03-30T00:08:04.512Z,4.30
2023-03-30T00:09:04.519Z,3.50
2023-03-30T00:10:03.819Z,2.90
2023-03-30T00:11:04.895Z,3.90
2023-03-30T00:12:04.951Z,3.50
2023-03-30T00:13:04.985Z,3.60
2023-03-30T00:14:07.577Z,5.50
2023-03-30T00:15:05.878Z,5.80
2023-03-30T00:16:04.574Z,4.80
2023-03-30T00:17:04.283Z,5.20
2023-03-30T00:18:04.822Z,4.30
2023-03-30T00:19:04.769Z,4.20
2023-03-30T00:20:04.471Z,3.00
2023-03-30T00:21:05.235Z,4.90
2023-03-30T00:22:04.270Z,4.50
2023-03-30T00:23:25.693Z,4.30
2023-03-30T00:24:06.343Z,3.60
2023-03-30T00:25:05.102Z,4.50
2023-03-30T00:26:04.154Z,4.30
2023-03-30T00:27:23.488Z,4.50
2023-03-30T00:28:08.986Z,5.20
2023-03-30T00:30:09.465Z,4.60
2023-03-30T00:31:11.623Z,4.10
2023-03-30T00:31:18.491Z,5.90
2023-03-30T00:32:19.959Z,2.80
2023-03-30T00:37:48.102Z,4.30
2023-03-30T00:38:41.728Z,5.10
2023-03-30T00:42:21.433Z,2.80
2023-03-30T00:44:38.532Z,4.20
2023-03-30T00:45:25.783Z,3.30
2023-03-30T00:45:48.317Z,5.30
2023-03-30T00:52:12.216Z,4.20
2023-03-30T00:53:14.029Z,4.70
2023-03-30T00:54:12.605Z,5.60
2023-03-30T01:02:55.911Z,4.70
2023-03-30T01:04:36.053Z,3.70
2023-03-30T01:05:20.748Z,5.10
2023-03-30T01:10:50.317Z,4.40
2023-03-30T01:13:55.664Z,4.10
2023-03-30T01:15:35.330Z,5.30
2023-03-30T01:15:38.708Z,6.10
2023-03-30T01:17:39.952Z,5.10
2023-03-30T01:18:56.079Z,3.80
2023-03-30T01:20:19.939Z,4.50
2023-03-30T01:21:11.076Z,5.70
2023-03-30T01:24:10.007Z,4.90
2023-03-30T01:27:14.587Z,4.90
2023-03-30T01:34:15.107Z,5.60
2023-03-30T01:35:16.973Z,4.60
2023-03-30T01:36:19.273Z,3.90
2023-03-30T01:37:16.240Z,3.60
2023-03-30T01:38:16.909Z,5.50
2023-03-30T01:39:16.895Z,3.10
2023-03-30T01:40:17.266Z,3.40
2023-03-30T01:41:20.280Z,3.80
2023-03-30T01:42:24.627Z,5.40
2023-03-30T01:43:16.984Z,3.20
2023-03-30T01:44:16.303Z,4.20
2023-03-30T01:45:20.954Z,5.40
2023-03-30T01:46:18.063Z,5.00
2023-03-30T01:47:21.008Z,4.30
2023-03-30T01:49:02.016Z,4.50
2023-03-30T01:49:52.889Z,5.50
2023-03-30T01:50:45.364Z,5.90
2023-03-30T01:51:56.815Z,4.60
2023-03-30T01:52:26.176Z,5.10
2023-03-30T01:53:39.121Z,4.60
2023-03-30T01:54:43.015Z,4.10
2023-03-30T01:55:22.044Z,4.80
2023-03-30T01:56:20.026Z,4.50
2023-03-30T01:57:17.187Z,4.70
2023-03-30T01:58:17.545Z,6.40
2023-03-30T01:59:18.726Z,4.10
2023-03-30T02:00:22.415Z,4.50
2023-03-30T02:01:16.477Z,4.80
2023-03-30T02:02:18.780Z,4.20
2023-03-30T02:03:16.322Z,3.90
2023-03-30T02:04:17.647Z,4.70
2023-03-30T02:05:16.583Z,3.90
2023-03-30T02:06:17.877Z,6.00
2023-03-30T02:07:17.508Z,3.30
2023-03-30T02:08:15.832Z,4.50
2023-03-30T02:09:17.006Z,5.70
2023-03-30T02:10:18.099Z,3.80
2023-03-30T02:11:16.479Z,5.40
2023-03-30T02:12:15.800Z,4.20
2023-03-30T02:13:16.869Z,4.80
2023-03-30T02:14:15.793Z,6.20
2023-03-30T02:15:16.619Z,4.80
2023-03-30T02:16:16.091Z,3.90
2023-03-30T02:17:15.746Z,4.90
2023-03-30T02:18:15.914Z,4.50
2023-03-30T02:19:15.776Z,4.80
2023-03-30T02:20:16.335Z,4.60
2023-03-30T02:21:15.863Z,4.80
2023-03-30T02:22:15.981Z,5.60
2023-03-30T02:23:16.460Z,6.60
2023-03-30T02:24:18.012Z,5.00
2023-03-30T02:25:15.830Z,3.80
2023-03-30T02:26:15.661Z,4.10
2023-03-30T02:27:15.748Z,5.20
2023-03-30T02:28:16.138Z,4.80
2023-03-30T02:29:16.136Z,5.20
2023-03-30T02:30:15.581Z,4.60
2023-03-30T02:31:15.711Z,3.00
2023-03-30T02:32:15.574Z,4.20
2023-03-30T02:33:15.599Z,3.80
2023-03-30T02:34:16.939Z,4.80
2023-03-30T02:35:15.526Z,4.50
2023-03-30T02:36:16.358Z,6.00
2023-03-30T02:37:15.777Z,4.80
2023-03-30T02:38:15.548Z,5.30
2023-03-30T02:39:16.492Z,6.00
2023-03-30T02:40:15.460Z,5.30
2023-03-30T02:41:16.562Z,3.80
2023-03-30T02:42:15.494Z,5.90
2023-03-30T02:43:15.555Z,3.50
2023-03-30T02:44:15.673Z,3.70
2023-03-30T02:45:15.372Z,5.20
2023-03-30T02:46:15.612Z,4.30
2023-03-30T02:47:15.540Z,4.40
2023-03-30T02:48:15.411Z,3.90
2023-03-30T02:49:15.424Z,4.70
2023-03-30T02:50:16.256Z,7.40
2023-03-30T02:51:15.504Z,4.30
2023-03-30T02:52:15.712Z,3.90
2023-03-30T02:53:15.325Z,3.70
2023-03-30T02:54:15.382Z,4.40
2023-03-30T02:55:15.407Z,7.20
2023-03-30T02:56:15.358Z,4.90
2023-03-30T02:57:15.319Z,4.10
2023-03-30T02:58:15.259Z,5.30
2023-03-30T02:59:15.382Z,5.10
2023-03-30T03:00:15.493Z,4.20
2023-03-30T03:01:15.232Z,4.60
2023-03-30T03:02:15.604Z,4.10
2023-03-30T03:03:15.261Z,4.50
2023-03-30T03:04:15.337Z,4.10
2023-03-30T03:05:15.618Z,5.80
2023-03-30T03:06:15.261Z,3.30
2023-03-30T03:07:15.301Z,5.30
2023-03-30T03:08:15.189Z,5.80
2023-03-30T03:09:15.187Z,6.00
2023-03-30T03:10:15.459Z,4.00
2023-03-30T03:11:15.287Z,4.90
2023-03-30T03:12:15.204Z,4.80
2023-03-30T03:13:15.169Z,6.00
2023-03-30T03:14:15.101Z,4.60
2023-03-30T03:15:15.288Z,6.00
2023-03-30T03:16:15.107Z,6.10
2023-03-30T03:17:15.149Z,5.20
2023-03-30T03:18:15.786Z,3.90
2023-03-30T03:19:15.076Z,4.90
2023-03-30T03:20:15.383Z,6.10
2023-03-30T03:21:15.195Z,4.70
2023-03-30T03:22:15.045Z,4.70
2023-03-30T03:23:16.015Z,5.50
2023-03-30T03:24:15.426Z,5.80
2023-03-30T03:25:15.043Z,5.20
2023-03-30T03:26:14.996Z,5.40
2023-03-30T03:27:15.033Z,6.70
2023-03-30T03:28:15.002Z,4.10
2023-03-30T03:29:15.208Z,5.70
2023-03-30T03:30:15.196Z,4.10
2023-03-30T03:31:15.002Z,4.70
2023-03-30T03:32:15.152Z,3.70
2023-03-30T03:33:14.912Z,4.20
2023-03-30T03:34:15.360Z,6.10
2023-03-30T03:35:14.892Z,5.50
2023-03-30T03:36:15.023Z,4.90
2023-03-30T03:37:14.899Z,3.80
2023-03-30T03:38:14.981Z,6.70
2023-03-30T03:39:15.162Z,4.90
2023-03-30T03:40:14.965Z,3.80
2023-03-30T03:41:15.734Z,5.10
2023-03-30T03:42:15.074Z,5.80
2023-03-30T03:43:14.805Z,3.70
2023-03-30T03:44:14.821Z,3.70
2023-03-30T03:45:14.815Z,5.70
2023-03-30T03:46:14.941Z,6.50
2023-03-30T03:47:16.478Z,5.20
2023-03-30T03:48:15.758Z,6.80
2023-03-30T03:49:14.753Z,3.30
2023-03-30T03:50:15.130Z,5.80
2023-03-30T03:51:14.750Z,4.50
2023-03-30T03:52:14.979Z,5.30
2023-03-30T03:53:14.740Z,5.40
2023-03-30T03:54:14.926Z,6.50
2023-03-30T03:55:14.735Z,5.10
2023-03-30T03:56:14.751Z,4.90
2023-03-30T03:57:15.500Z,3.60
2023-03-30T03:58:14.843Z,6.20
2023-03-30T03:59:15.570Z,6.10
2023-03-30T04:00:14.691Z,5.10
2023-03-30T04:01:14.749Z,4.60
2023-03-30T04:02:15.310Z,5.90
2023-03-30T04:03:14.649Z,6.40
2023-03-30T04:04:14.674Z,6.70
2023-03-30T04:05:14.649Z,4.90
2023-03-30T04:06:14.650Z,5.90
2023-03-30T04:07:14.709Z,6.50
2023-03-30T04:08:14.529Z,4.60
2023-03-30T04:09:14.640Z,6.20
2023-03-30T04:10:14.541Z,5.50
2023-03-30T04:11:14.693Z,7.00
2023-03-30T04:12:14.536Z,7.30
2023-03-30T04:13:14.544Z,6.70
2023-03-30T04:14:14.524Z,4.40
2023-03-30T04:15:14.483Z,4.70
2023-03-30T04:16:14.783Z,6.20
2023-03-30T04:17:14.467Z,7.20
2023-03-30T04:18:15.614Z,8.00
2023-03-30T04:19:14.578Z,5.40
2023-03-30T04:20:14.529Z,5.20
2023-03-30T04:21:14.516Z,5.70
2023-03-30T04:22:14.463Z,3.30
2023-03-30T04:23:14.390Z,7.30
2023-03-30T04:24:14.410Z,4.80
2023-03-30T04:25:14.461Z,7.30
2023-03-30T04:26:14.416Z,6.30
2023-03-30T04:27:14.693Z,7.20
2023-03-30T04:28:14.574Z,6.40
2023-03-30T04:29:14.315Z,6.60
2023-03-30T04:30:14.334Z,6.30
2023-03-30T04:31:14.563Z,7.00
2023-03-30T04:32:14.505Z,7.80
2023-03-30T04:33:14.319Z,5.80
2023-03-30T04:34:15.074Z,5.90
2023-03-30T04:35:14.407Z,7.50
2023-03-30T04:36:14.293Z,7.30
2023-03-30T04:37:14.611Z,6.10
2023-03-30T04:38:14.302Z,5.50
2023-03-30T04:39:14.673Z,4.70
2023-03-30T04:40:14.292Z,6.60
2023-03-30T04:41:14.389Z,6.10
2023-03-30T04:42:14.590Z,6.20
2023-03-30T04:43:14.239Z,6.80
2023-03-30T04:44:14.568Z,4.70
2023-03-30T04:45:14.577Z,5.80
2023-03-30T04:46:14.633Z,6.10
2023-03-30T04:47:14.553Z,5.00
2023-03-30T04:48:14.179Z,7.70
2023-03-30T04:49:14.177Z,6.10
2023-03-30T04:50:14.218Z,8.40
2023-03-30T04:51:14.159Z,6.50
2023-03-30T04:52:14.321Z,5.90
2023-03-30T04:53:14.790Z,5.10
2023-03-30T04:54:14.109Z,5.50
2023-03-30T04:55:14.203Z,6.40
2023-03-30T04:56:14.054Z,6.40
2023-03-30T04:57:14.321Z,6.30
2023-03-30T04:58:14.075Z,5.70
2023-03-30T04:59:14.044Z,6.50
2023-03-30T05:00:14.767Z,7.50
2023-03-30T05:01:14.058Z,6.50
2023-03-30T05:02:14.131Z,7.90
2023-03-30T05:03:14.082Z,5.80
2023-03-30T05:04:14.096Z,7.60
2023-03-30T05:05:13.976Z,6.60
2023-03-30T05:06:14.053Z,7.30
2023-03-30T05:07:13.964Z,8.50
2023-03-30T05:08:13.956Z,6.30
2023-03-30T05:09:14.355Z,5.20
2023-03-30T05:10:14.032Z,5.20
2023-03-30T05:11:13.944Z,9.20
2023-03-30T05:12:13.946Z,5.80
2023-03-30T05:13:13.979Z,5.80
2023-03-30T05:14:13.903Z,6.30
2023-03-30T05:15:13.912Z,7.30
2023-03-30T05:16:13.955Z,7.70
2023-03-30T05:17:14.049Z,6.40
2023-03-30T05:18:14.733Z,5.50
2023-03-30T05:19:13.946Z,5.40
2023-03-30T05:20:13.925Z,6.30
2023-03-30T05:21:13.888Z,6.00
2023-03-30T05:22:13.859Z,6.30
2023-03-30T05:23:13.852Z,5.60
2023-03-30T05:24:13.965Z,6.70
2023-03-30T05:25:13.856Z,7.40
2023-03-30T05:26:13.830Z,6.90
2023-03-30T05:27:13.812Z,8.20
2023-03-30T05:28:13.924Z,6.00
2023-03-30T05:29:13.935Z,8.40
2023-03-30T05:30:13.785Z,4.50
2023-03-30T05:31:13.715Z,5.30
2023-03-30T05:32:13.860Z,5.50
2023-03-30T05:33:13.731Z,8.50
2023-03-30T05:34:13.822Z,5.10
2023-03-30T05:35:13.840Z,6.00
2023-03-30T05:36:13.835Z,5.00
2023-03-30T05:37:13.670Z,9.70
2023-03-30T05:38:13.822Z,5.90
2023-03-30T05:39:13.649Z,5.10
2023-03-30T05:40:13.645Z,4.20
2023-03-30T05:41:13.650Z,6.50
2023-03-30T05:42:13.638Z,6.50
2023-03-30T05:43:13.666Z,6.60
2023-03-30T05:44:13.606Z,5.80
2023-03-30T05:45:13.567Z,6.40
2023-03-30T05:46:13.619Z,6.60
2023-03-30T05:47:13.695Z,5.50
2023-03-30T05:48:14.132Z,4.00
2023-03-30T05:49:13.593Z,7.40
2023-03-30T05:50:13.947Z,5.40
2023-03-30T05:51:13.540Z,6.10
2023-03-30T05:52:13.790Z,6.30
2023-03-30T05:53:13.996Z,7.20
2023-03-30T05:54:13.507Z,4.50
2023-03-30T05:55:13.515Z,5.40
2023-03-30T05:56:13.484Z,4.90
2023-03-30T05:57:13.723Z,4.60
2023-03-30T05:58:13.453Z,6.80
2023-03-30T05:59:13.623Z,7.60
2023-03-30T06:00:13.509Z,4.40
2023-03-30T06:01:13.398Z,4.40
2023-03-30T06:02:13.785Z,5.10
2023-03-30T06:03:13.500Z,6.80
2023-03-30T06:04:14.325Z,5.50
2023-03-30T06:05:13.368Z,6.30
2023-03-30T06:06:13.442Z,5.40
2023-03-30T06:07:13.376Z,6.50
2023-03-30T06:08:13.289Z,7.00
2023-03-30T06:09:14.273Z,7.20
2023-03-30T06:10:13.318Z,5.30
2023-03-30T06:11:14.123Z,6.30
2023-03-30T06:12:13.278Z,6.00
2023-03-30T06:13:13.324Z,5.90
2023-03-30T06:14:13.318Z,5.50
2023-03-30T06:15:13.308Z,8.00
2023-03-30T06:16:13.398Z,5.30
2023-03-30T06:17:13.279Z,6.10
2023-03-30T06:18:13.253Z,5.70
2023-03-30T06:33:03.539Z,7.20
2023-03-30T06:34:03.450Z,5.30
2023-03-30T06:35:04.677Z,4.80
2023-03-30T06:36:04.743Z,5.80
2023-03-30T06:37:04.666Z,5.40
2023-03-30T06:38:04.605Z,6.90
2023-03-30T06:39:06.499Z,6.10
2023-03-30T06:40:05.550Z,5.30
2023-03-30T06:41:04.796Z,5.60
2023-03-30T06:42:04.561Z,5.80
2023-03-30T06:43:04.561Z,5.90
2023-03-30T06:44:04.654Z,6.40
2023-03-30T06:45:04.522Z,6.20
2023-03-30T06:46:04.655Z,6.70
2023-03-30T06:47:04.499Z,6.70
2023-03-30T06:48:04.598Z,5.00
2023-03-30T06:49:04.538Z,6.40
2023-03-30T06:50:04.534Z,5.30
2023-03-30T06:51:04.733Z,6.60
2023-03-30T06:52:06.211Z,7.20
2023-03-30T06:53:06.510Z,6.20
2023-03-30T06:54:04.450Z,7.30
2023-03-30T06:55:04.454Z,7.70
2023-03-30T06:56:04.416Z,6.10
2023-03-30T06:57:04.472Z,5.20
2023-03-30T06:58:04.865Z,4.80
2023-03-30T06:59:04.398Z,7.40
2023-03-30T07:00:05.174Z,6.20
2023-03-30T07:01:04.639Z,5.70
2023-03-30T07:02:04.439Z,5.70
2023-03-30T07:03:04.427Z,4.00
2023-03-30T07:04:04.374Z,4.50
2023-03-30T07:05:04.353Z,5.10
2023-03-30T07:06:04.376Z,6.00
2023-03-30T07:07:04.480Z,9.00
2023-03-30T07:08:04.419Z,4.90
2023-03-30T07:09:04.389Z,7.00
2023-03-30T07:10:04.347Z,5.70
2023-03-30T07:11:04.631Z,6.20
2023-03-30T07:12:04.424Z,8.10
2023-03-30T07:13:04.296Z,5.70
2023-03-30T07:14:04.289Z,5.40
2023-03-30T07:15:04.295Z,6.50
2023-03-30T07:16:04.296Z,5.20
2023-03-30T07:17:04.322Z,5.40
2023-03-30T07:18:04.288Z,5.60
2023-03-30T07:19:04.289Z,6.10
2023-03-30T07:20:04.388Z,5.00
2023-03-30T07:21:04.493Z,6.80
2023-03-30T07:22:04.200Z,5.70
2023-03-30T07:23:04.204Z,6.60
2023-03-30T07:24:04.165Z,7.30
2023-03-30T07:25:04.130Z,5.10
2023-03-30T07:26:04.322Z,6.10
2023-03-30T07:27:04.202Z,6.60
2023-03-30T07:28:04.185Z,6.70
2023-03-30T07:29:04.224Z,6.70
2023-03-30T07:30:17.890Z,5.40
2023-03-30T07:31:06.573Z,7.20
2023-03-30T07:32:04.230Z,5.40
2023-03-30T07:33:04.302Z,9.20
2023-03-30T07:34:04.161Z,7.40
2023-03-30T07:35:04.175Z,7.20
2023-03-30T07:36:04.197Z,5.60
2023-03-30T07:37:04.091Z,7.80
2023-03-30T07:38:04.276Z,6.50
2023-03-30T07:39:05.129Z,5.50
2023-03-30T07:40:04.184Z,6.00
2023-03-30T07:41:04.210Z,8.00
2023-03-30T07:42:05.045Z,7.30
2023-03-30T07:43:04.061Z,8.10
2023-03-30T07:44:04.093Z,7.90
2023-03-30T07:45:03.950Z,5.90
2023-03-30T07:46:04.118Z,8.90
2023-03-30T07:47:04.061Z,5.30
2023-03-30T07:48:04.041Z,7.10
2023-03-30T07:49:04.248Z,5.50
2023-03-30T07:50:04.022Z,7.70
2023-03-30T07:51:04.898Z,6.10
2023-03-30T07:52:03.974Z,8.30
2023-03-30T07:53:03.951Z,6.50
2023-03-30T07:54:03.901Z,7.30
2023-03-30T07:55:03.930Z,6.50
2023-03-30T07:56:03.970Z,6.90
2023-03-30T07:57:03.973Z,7.30
2023-03-30T07:58:04.974Z,7.50
2023-03-30T07:59:03.868Z,6.40
2023-03-30T08:00:03.880Z,7.60
2023-03-30T08:01:04.016Z,8.80
2023-03-30T08:02:03.867Z,9.60
2023-03-30T08:03:03.918Z,8.50
2023-03-30T08:04:03.832Z,8.70
2023-03-30T08:05:03.943Z,11.90
2023-03-30T08:06:03.897Z,9.90
2023-03-30T08:07:03.782Z,8.80
2023-03-30T08:08:03.745Z,9.00
2023-03-30T08:09:03.789Z,9.30
2023-03-30T08:10:04.330Z,7.10
2023-03-30T08:11:03.892Z,8.40
2023-03-30T08:12:03.710Z,7.90
2023-03-30T08:13:03.713Z,9.60
2023-03-30T08:14:03.624Z,8.60
2023-03-30T08:15:03.637Z,9.70
2023-03-30T08:16:03.714Z,7.70
2023-03-30T08:17:03.737Z,8.90
2023-03-30T08:18:03.689Z,6.70
2023-03-30T08:19:03.766Z,8.20
2023-03-30T08:20:03.713Z,6.70
2023-03-30T08:21:04.113Z,11.50
2023-03-30T08:22:03.563Z,6.20
2023-03-30T08:23:03.634Z,6.20
2023-03-30T08:24:03.583Z,8.60
2023-03-30T08:25:03.525Z,8.10
2023-03-30T08:26:03.529Z,5.70
2023-03-30T08:27:03.662Z,6.70
2023-03-30T08:28:03.541Z,9.40
2023-03-30T08:29:03.498Z,7.10
2023-03-30T08:30:03.555Z,8.40
2023-03-30T08:31:03.656Z,6.60
2023-03-30T08:32:03.535Z,7.70
2023-03-30T08:33:03.652Z,7.50
2023-03-30T08:34:03.425Z,8.10
2023-03-30T08:35:03.467Z,6.50
2023-03-30T08:36:03.449Z,8.00
2023-03-30T08:37:03.506Z,6.90
2023-03-30T08:38:03.480Z,7.40
2023-03-30T08:39:03.402Z,7.60
2023-03-30T08:40:03.524Z,7.00
2023-03-30T08:41:03.612Z,8.10
2023-03-30T08:42:03.479Z,7.00
2023-03-30T08:43:03.383Z,8.70
2023-03-30T08:44:03.402Z,5.50
2023-03-30T08:45:03.407Z,5.90
2023-03-30T08:46:03.325Z,7.30
2023-03-30T08:47:05.823Z,7.30
2023-03-30T08:48:03.412Z,6.80
2023-03-30T08:49:03.311Z,7.20
2023-03-30T08:50:03.307Z,8.10
2023-03-30T08:51:03.484Z,6.90
2023-03-30T08:52:03.377Z,8.30
2023-03-30T08:53:03.311Z,6.30
2023-03-30T08:54:03.281Z,7.40
2023-03-30T08:55:03.229Z,8.50
2023-03-30T08:56:03.297Z,8.00
2023-03-30T08:57:03.203Z,7.20
2023-03-30T08:58:03.283Z,7.90
2023-03-30T08:59:03.206Z,8.70
2023-03-30T09:00:03.239Z,7.30
2023-03-30T09:01:03.455Z,7.40
2023-03-30T09:02:03.164Z,6.90
2023-03-30T09:03:03.238Z,9.20
2023-03-30T09:04:03.147Z,8.10
2023-03-30T09:05:03.248Z,5.70
2023-03-30T09:06:03.215Z,8.40
2023-03-30T09:07:03.144Z,7.30
2023-03-30T09:08:03.214Z,7.10
2023-03-30T09:09:03.097Z,5.80
2023-03-30T09:10:03.153Z,5.90
2023-03-30T09:11:03.279Z,5.60
2023-03-30T09:12:03.131Z,7.10
2023-03-30T09:13:03.140Z,4.90
2023-03-30T09:14:03.190Z,8.50
2023-03-30T09:15:03.121Z,8.70
2023-03-30T09:16:03.036Z,6.10
2023-03-30T09:17:03.131Z,7.50
2023-03-30T09:18:03.092Z,6.30
2023-03-30T09:19:03.012Z,5.80
2023-03-30T09:20:02.973Z,6.80
2023-03-30T09:21:03.211Z,6.30
2023-03-30T09:22:03.845Z,5.30
2023-03-30T09:23:03.012Z,4.90
2023-03-30T09:24:02.931Z,7.80
2023-03-30T09:25:03.059Z,6.60
2023-03-30T09:26:03.030Z,5.40
2023-03-30T09:27:03.156Z,5.90
2023-03-30T09:28:02.903Z,7.20
2023-03-30T09:29:02.933Z,7.10
2023-03-30T09:30:02.940Z,5.90
2023-03-30T09:31:03.297Z,8.20
2023-03-30T09:32:02.900Z,7.20
2023-03-30T09:33:02.955Z,6.20
2023-03-30T09:34:03.638Z,6.60
2023-03-30T09:35:02.871Z,6.50
2023-03-30T09:36:03.158Z,6.20
2023-03-30T09:37:02.896Z,8.40
2023-03-30T09:38:02.902Z,6.20
2023-03-30T09:39:02.798Z,5.40
2023-03-30T09:40:02.892Z,6.70
2023-03-30T09:41:02.899Z,5.50
2023-03-30T09:42:02.787Z,6.00
2023-03-30T09:43:02.782Z,6.70
2023-03-30T09:44:02.816Z,6.40
2023-03-30T09:45:02.836Z,7.70
2023-03-30T09:46:02.922Z,5.00
2023-03-30T09:47:02.844Z,7.80
2023-03-30T09:48:02.855Z,5.70
2023-03-30T09:49:02.743Z,6.00
2023-03-30T09:50:02.869Z,7.10
2023-03-30T09:51:02.721Z,7.70
2023-03-30T09:52:02.749Z,7.00
2023-03-30T09:53:02.745Z,6.90
2023-03-30T09:54:02.734Z,6.30
2023-03-30T09:55:02.670Z,5.90
2023-03-30T09:56:03.034Z,5.90
2023-03-30T09:57:02.645Z,7.20
2023-03-30T09:58:02.645Z,6.90
2023-03-30T09:59:03.319Z,5.90
2023-03-30T10:00:02.620Z,4.60
2023-03-30T10:01:02.821Z,6.80
2023-03-30T10:02:02.710Z,5.00
2023-03-30T10:03:02.797Z,7.90
2023-03-30T10:04:02.896Z,7.40
2023-03-30T10:05:02.682Z,8.50
2023-03-30T10:06:02.685Z,4.60
2023-03-30T10:07:12.963Z,5.70
2023-03-30T10:08:05.357Z,6.80
2023-03-30T10:09:02.542Z,6.70
2023-03-30T10:10:03.221Z,6.20
2023-03-30T10:11:02.490Z,7.10
2023-03-30T10:12:02.481Z,7.30
2023-03-30T10:13:02.485Z,5.40
2023-03-30T10:14:02.531Z,5.90
2023-03-30T10:15:02.514Z,6.50
2023-03-30T10:16:02.548Z,7.20
2023-03-30T10:17:02.478Z,7.10
2023-03-30T10:18:02.500Z,4.90
2023-03-30T10:19:02.513Z,6.70
2023-03-30T10:20:13.295Z,7.20
2023-03-30T10:21:04.413Z,6.50
2023-03-30T10:22:02.379Z,5.30
2023-03-30T10:23:02.397Z,6.20
2023-03-30T10:24:02.470Z,5.90
2023-03-30T10:25:02.368Z,6.40
2023-03-30T10:26:02.618Z,5.80
2023-03-30T10:27:02.355Z,6.10
2023-03-30T10:28:02.330Z,5.60
2023-03-30T10:29:02.389Z,6.70
2023-03-30T10:30:02.302Z,4.50
2023-03-30T10:31:02.343Z,6.20
2023-03-30T10:32:02.372Z,5.50
2023-03-30T10:33:02.457Z,8.90
2023-03-30T10:34:02.359Z,4.90
2023-03-30T10:35:02.255Z,6.80
2023-03-30T10:36:02.553Z,6.00
2023-03-30T10:37:02.274Z,5.30
2023-03-30T10:38:02.295Z,6.30
2023-03-30T10:39:02.197Z,6.40
2023-03-30T10:40:02.228Z,4.90
2023-03-30T10:41:02.185Z,5.70
2023-03-30T10:42:02.258Z,6.10
2023-03-30T10:43:02.202Z,6.10
2023-03-30T10:44:02.233Z,4.10
2023-03-30T10:45:02.350Z,6.80
2023-03-30T10:46:12.773Z,5.90
2023-03-30T10:47:04.178Z,4.30
2023-03-30T10:48:02.195Z,4.50
2023-03-30T10:49:02.148Z,6.90
2023-03-30T10:50:02.123Z,5.00
2023-03-30T10:51:02.072Z,5.80
2023-03-30T10:52:02.121Z,4.60
2023-03-30T10:53:02.067Z,5.20
2023-03-30T10:54:02.088Z,3.80
2023-03-30T10:55:02.078Z,5.70
2023-03-30T10:56:02.198Z,6.30
2023-03-30T10:57:02.388Z,4.20
2023-03-30T10:58:02.067Z,3.80
2023-03-30T10:59:02.139Z,3.70
2023-03-30T11:00:02.021Z,4.50
2023-03-30T11:01:02.059Z,4.50
2023-03-30T11:02:01.943Z,5.00
2023-03-30T11:03:02.153Z,4.70
2023-03-30T11:04:12.464Z,4.40
2023-03-30T11:05:04.103Z,4.50
2023-03-30T11:06:02.355Z,5.00
2023-03-30T11:07:02.025Z,4.60
2023-03-30T11:08:01.890Z,3.20
2023-03-30T11:09:02.003Z,4.00
2023-03-30T11:10:01.921Z,5.50
2023-03-30T11:11:02.000Z,5.00
2023-03-30T11:12:01.966Z,3.00
2023-03-30T11:13:01.926Z,4.40
2023-03-30T11:14:01.984Z,7.50
2023-03-30T11:15:02.025Z,6.00
2023-03-30T11:16:02.113Z,11.90
2023-03-30T11:17:01.901Z,7.30
2023-03-30T11:18:01.997Z,6.10
2023-03-30T11:19:01.858Z,9.40
2023-03-30T11:20:01.796Z,14.50
2023-03-30T11:21:01.791Z,9.40
2023-03-30T11:22:02.709Z,15.40
2023-03-30T11:23:01.901Z,16.40
2023-03-30T11:24:02.075Z,20.60
2023-03-30T11:25:02.016Z,12.60
2023-03-30T11:26:01.887Z,8.90
2023-03-30T11:27:01.789Z,6.90
2023-03-30T11:28:01.800Z,6.10
2023-03-30T11:29:01.823Z,3.90
2023-03-30T11:30:01.699Z,3.10
2023-03-30T11:31:01.664Z,2.60
2023-03-30T11:32:01.805Z,4.70
2023-03-30T11:33:01.797Z,2.40
2023-03-30T11:34:01.910Z,2.60
2023-03-30T11:35:01.709Z,4.50
2023-03-30T11:36:02.144Z,5.70
2023-03-30T11:37:02.091Z,3.60
2023-03-30T11:38:01.711Z,5.40
2023-03-30T11:39:01.760Z,4.70
2023-03-30T11:40:01.834Z,3.40
2023-03-30T11:41:02.406Z,3.00
2023-03-30T11:42:01.567Z,5.70
2023-03-30T11:43:01.769Z,6.50
2023-03-30T11:44:01.604Z,8.40
2023-03-30T11:45:01.656Z,7.50
2023-03-30T11:46:03.784Z,8.00
2023-03-30T11:47:02.635Z,7.90
2023-03-30T11:48:01.942Z,7.90
2023-03-30T11:49:01.509Z,5.70
2023-03-30T11:50:01.507Z,5.30
2023-03-30T11:51:01.550Z,12.90
2023-03-30T11:52:01.667Z,6.30
2023-03-30T11:53:01.749Z,5.00
2023-03-30T11:54:01.657Z,5.10
2023-03-30T11:55:03.987Z,3.50
2023-03-30T11:56:02.591Z,4.10
2023-03-30T11:57:01.630Z,3.80
2023-03-30T11:58:02.605Z,3.00
2023-03-30T11:59:01.442Z,2.80
2023-03-30T12:00:01.412Z,2.20
2023-03-30T12:01:01.478Z,3.00
2023-03-30T12:02:01.408Z,3.40
2023-03-30T12:03:01.808Z,3.70
2023-03-30T12:04:01.612Z,5.00
2023-03-30T12:05:01.621Z,2.40
2023-03-30T12:06:01.408Z,3.50
2023-03-30T12:07:01.345Z,1.70
2023-03-30T12:08:01.364Z,1.70
2023-03-30T12:09:01.376Z,3.30
2023-03-30T12:10:04.089Z,2.90
2023-03-30T12:11:01.361Z,1.90
2023-03-30T12:12:01.339Z,2.20
2023-03-30T12:13:01.450Z,2.20
2023-03-30T12:14:01.334Z,2.30
2023-03-30T12:15:01.337Z,2.10
2023-03-30T12:16:01.288Z,1.40
2023-03-30T12:17:01.288Z,3.10
2023-03-30T12:18:01.291Z,2.90
2023-03-30T12:19:01.253Z,4.20
2023-03-30T12:20:01.376Z,2.00
2023-03-30T12:21:01.277Z,5.50
2023-03-30T12:22:02.228Z,3.80
2023-03-30T12:23:01.240Z,4.30
2023-03-30T12:24:01.245Z,3.50
2023-03-30T12:25:01.802Z,7.00
2023-03-30T12:26:01.325Z,4.10
2023-03-30T12:27:06.158Z,4.90
2023-03-30T12:28:03.203Z,5.10
2023-03-30T12:30:03.494Z,8.90
2023-03-30T12:31:02.843Z,3.30
2023-03-30T12:32:01.314Z,3.50
2023-03-30T12:36:14.758Z,4.20
2023-03-30T12:37:14.834Z,2.70
2023-03-30T12:38:15.418Z,1.50
2023-03-30T12:39:14.800Z,3.30
2023-03-30T12:40:14.744Z,1.70
2023-03-30T12:41:16.122Z,1.40
2023-03-30T12:42:16.082Z,0.80
2023-03-30T12:43:15.982Z,2.20
2023-03-30T12:44:15.896Z,2.40
2023-03-30T12:45:15.928Z,2.60
2023-03-30T12:46:16.041Z,1.80
2023-03-30T12:47:16.015Z,3.10
2023-03-30T12:48:15.927Z,1.00
2023-03-30T12:49:15.943Z,1.00
2023-03-30T12:50:15.829Z,2.00
2023-03-30T12:51:15.927Z,0.70
2023-03-30T12:52:15.895Z,2.60
2023-03-30T12:53:15.811Z,2.70
2023-03-30T12:54:15.866Z,7.00
2023-03-30T12:55:15.814Z,4.20
2023-03-30T12:56:15.772Z,2.80
2023-03-30T12:57:15.922Z,5.40
2023-03-30T12:58:15.725Z,2.20
2023-03-30T12:59:16.164Z,3.80
2023-03-30T13:00:15.761Z,3.40
2023-03-30T13:01:15.825Z,2.90
2023-03-30T13:02:15.768Z,4.00
2023-03-30T13:03:15.679Z,2.10
2023-03-30T13:04:15.811Z,1.70
2023-03-30T13:05:15.698Z,4.60
2023-03-30T13:06:15.698Z,1.90
2023-03-30T13:07:15.651Z,1.50
2023-03-30T13:08:15.728Z,1.50
2023-03-30T13:09:15.663Z,4.30
2023-03-30T13:10:15.810Z,2.20
2023-03-30T13:11:15.632Z,3.10
2023-03-30T13:12:15.663Z,3.30
2023-03-30T13:13:15.620Z,3.20
2023-03-30T13:14:15.664Z,3.70
2023-03-30T13:15:15.621Z,5.50
2023-03-30T13:16:15.612Z,3.40
2023-03-30T13:17:15.753Z,2.60
2023-03-30T13:18:15.581Z,2.10
2023-03-30T13:19:15.549Z,2.50
2023-03-30T13:20:28.420Z,1.30
2023-03-30T13:21:16.546Z,1.30
2023-03-30T13:22:15.560Z,1.20
2023-03-30T13:23:15.617Z,1.10
2023-03-30T13:24:15.548Z,1.20
2023-03-30T13:25:15.495Z,3.10
2023-03-30T13:26:21.897Z,2.00
2023-03-30T13:27:17.510Z,2.10
2023-03-30T13:28:15.480Z,1.20
2023-03-30T13:29:15.531Z,2.50
2023-03-30T13:30:15.602Z,2.00
2023-03-30T13:31:15.583Z,1.60
2023-03-30T13:32:15.421Z,1.30
2023-03-30T13:33:15.741Z,1.40
2023-03-30T13:34:15.405Z,2.00
2023-03-30T13:35:15.479Z,2.80
2023-03-30T13:36:16.129Z,2.20
2023-03-30T13:37:15.380Z,3.30
2023-03-30T13:38:15.365Z,2.50
2023-03-30T13:39:15.374Z,2.30
2023-03-30T13:40:19.716Z,2.00
2023-03-30T13:41:17.458Z,2.60
2023-03-30T13:42:15.400Z,3.00
2023-03-30T13:43:15.332Z,2.60
2023-03-30T13:44:15.310Z,3.50
2023-03-30T13:45:15.345Z,1.90
2023-03-30T13:46:17.396Z,2.20
2023-03-30T13:47:16.423Z,2.10
2023-03-30T13:48:15.264Z,2.50
2023-03-30T13:49:15.370Z,2.80
2023-03-30T13:50:15.215Z,2.60
2023-03-30T13:51:15.185Z,3.20
2023-03-30T13:52:15.258Z,3.50
2023-03-30T13:53:15.669Z,3.30
2023-03-30T13:54:16.146Z,2.90
2023-03-30T13:55:15.206Z,2.30
2023-03-30T13:56:15.259Z,2.90
2023-03-30T13:57:15.247Z,2.60
2023-03-30T13:58:15.237Z,3.10
2023-03-30T13:59:15.179Z,3.00
2023-03-30T14:00:15.114Z,3.30
2023-03-30T14:01:15.138Z,3.20
2023-03-30T14:02:15.105Z,2.90
2023-03-30T14:03:15.310Z,2.50
2023-03-30T14:04:15.240Z,3.10
2023-03-30T14:05:15.097Z,3.20
2023-03-30T14:06:15.068Z,3.20
2023-03-30T14:07:15.089Z,4.10
2023-03-30T14:08:15.045Z,4.30
2023-03-30T14:09:15.057Z,2.60
2023-03-30T14:10:15.127Z,2.90
2023-03-30T14:11:15.017Z,2.90
2023-03-30T14:12:15.545Z,3.00
2023-03-30T14:13:17.512Z,2.20
2023-03-30T14:14:16.046Z,2.90
2023-03-30T14:15:15.158Z,2.40